createdAt,value
2023-10-18T00:00:26.760Z,17.13
2023-10-18T00:02:55.548Z,16.20
2023-10-18T00:05:24.188Z,16.83
2023-10-18T00:07:55.358Z,16.20
2023-10-18T00:10:23.831Z,16.50
2023-10-18T00:12:53.891Z,15.30
2023-10-18T00:15:22.691Z,16.07
2023-10-18T00:17:51.331Z,15.80
2023-10-18T00:20:22.611Z,16.27
2023-10-18T00:22:50.700Z,17.03
2023-10-18T00:25:21.545Z,15.37
2023-10-18T00:27:50.472Z,17.50
2023-10-18T00:30:20.432Z,16.73
2023-10-18T00:32:48.791Z,15.77
2023-10-18T00:35:21.972Z,15.93
2023-10-18T00:37:55.895Z,16.67
2023-10-18T00:40:35.226Z,16.83
2023-10-18T00:43:08.512Z,15.43
2023-10-18T00:45:42.306Z,17.33
2023-10-18T00:48:12.399Z,16.03
2023-10-18T00:50:44.253Z,18.20
2023-10-18T00:53:14.824Z,16.10
2023-10-18T00:55:44.643Z,16.60
2023-10-18T00:58:13.716Z,19.23
2023-10-18T01:00:42.231Z,16.80
2023-10-18T01:03:16.459Z,15.30
2023-10-18T01:06:02.166Z,17.07
2023-10-18T01:08:33.715Z,17.30
2023-10-18T01:11:08.209Z,15.90
2023-10-18T01:13:38.529Z,17.40
2023-10-18T01:16:14.514Z,17.07
2023-10-18T01:18:45.174Z,16.30
2023-10-18T01:21:18.313Z,16.87
2023-10-18T01:23:50.496Z,15.40
2023-10-18T01:26:20.903Z,15.80
2023-10-18T01:28:49.410Z,16.33
2023-10-18T01:31:17.795Z,18.03
2023-10-18T01:33:47.419Z,16.53
2023-10-18T01:36:16.868Z,16.63
2023-10-18T01:38:47.515Z,17.73
2023-10-18T01:41:18.198Z,15.90
2023-10-18T01:43:49.125Z,16.50
2023-10-18T01:46:17.751Z,16.47
2023-10-18T01:48:52.397Z,16.37
2023-10-18T01:51:21.150Z,16.40
2023-10-18T01:53:51.672Z,15.93
2023-10-18T01:56:22.250Z,16.27
2023-10-18T01:58:51.813Z,15.97
2023-10-18T02:01:20.130Z,16.63
2023-10-18T02:03:51.340Z,16.87
2023-10-18T02:06:21.471Z,17.07
2023-10-18T02:08:50.762Z,17.07
2023-10-18T02:11:18.809Z,15.90
2023-10-18T02:13:46.992Z,15.77
2023-10-18T02:16:17.289Z,17.93
2023-10-18T02:18:47.988Z,17.20
2023-10-18T02:21:16.964Z,17.83
2023-10-18T02:23:49.415Z,17.10
2023-10-18T02:26:31.868Z,18.37
2023-10-18T02:29:01.758Z,15.27
2023-10-18T02:31:31.758Z,16.93
2023-10-18T02:33:59.922Z,16.40
2023-10-18T02:36:39.778Z,17.00
2023-10-18T02:39:10.065Z,16.27
2023-10-18T02:41:39.393Z,16.43
2023-10-18T02:44:12.437Z,15.63
2023-10-18T02:46:41.984Z,16.40
2023-10-18T02:49:10.397Z,15.10
2023-10-18T02:51:38.511Z,15.97
2023-10-18T02:54:17.885Z,16.83
2023-10-18T02:56:51.267Z,17.07
2023-10-18T02:59:25.884Z,16.40
2023-10-18T03:01:57.062Z,16.67
2023-10-18T03:04:30.810Z,16.87
2023-10-18T03:06:59.024Z,17.17
2023-10-18T03:09:39.466Z,17.13
2023-10-18T03:12:14.702Z,17.30
2023-10-18T03:14:55.050Z,16.33
2023-10-18T03:17:26.009Z,17.57
2023-10-18T03:19:57.162Z,15.43
2023-10-18T03:22:30.597Z,16.67
2023-10-18T03:25:00.316Z,15.87
2023-10-18T03:27:32.023Z,15.20
2023-10-18T03:30:00.405Z,16.73
2023-10-18T03:32:29.857Z,15.63
2023-10-18T03:34:58.006Z,16.37
2023-10-18T03:37:27.005Z,15.43
2023-10-18T03:39:56.101Z,16.40
2023-10-18T03:42:33.361Z,17.10
2023-10-18T03:45:01.827Z,17.50
2023-10-18T03:47:37.337Z,16.00
2023-10-18T03:50:10.133Z,16.77
2023-10-18T03:52:39.256Z,15.67
2023-10-18T03:55:14.090Z,16.07
2023-10-18T03:57:42.957Z,18.23
2023-10-18T04:00:26.480Z,16.57
2023-10-18T04:02:58.065Z,19.30
2023-10-18T04:05:39.063Z,17.30
2023-10-18T04:08:07.642Z,18.77
2023-10-18T04:10:37.865Z,16.80
2023-10-18T04:13:13.498Z,19.00
2023-10-18T04:15:42.995Z,18.40
2023-10-18T04:18:16.238Z,19.00
2023-10-18T04:20:47.769Z,18.23
2023-10-18T04:23:19.805Z,17.60
2023-10-18T04:25:58.549Z,18.47
2023-10-18T04:28:27.260Z,16.47
2023-10-18T04:31:01.112Z,19.00
2023-10-18T04:33:36.485Z,18.07
2023-10-18T04:36:10.485Z,17.20
2023-10-18T04:38:43.946Z,17.93
2023-10-18T04:41:23.836Z,19.50
2023-10-18T04:43:53.314Z,18.50
2023-10-18T04:46:27.397Z,16.67
2023-10-18T04:49:17.464Z,17.30
2023-10-18T04:51:49.655Z,17.57
2023-10-18T04:54:19.541Z,17.07
2023-10-18T04:56:48.455Z,17.97
2023-10-18T04:59:38.037Z,16.83
2023-10-18T05:02:06.593Z,17.80
2023-10-18T05:04:36.298Z,17.60
2023-10-18T05:07:05.636Z,18.37
2023-10-18T05:09:35.988Z,17.20
2023-10-18T05:12:08.860Z,17.77
2023-10-18T05:17:19.313Z,16.43
2023-10-18T05:19:49.822Z,17.17
2023-10-18T05:22:21.182Z,17.70
2023-10-18T05:24:56.556Z,16.60
2023-10-18T05:27:28.651Z,17.33
2023-10-18T05:29:58.878Z,17.70
2023-10-18T05:32:51.651Z,20.00
2023-10-18T05:35:28.020Z,20.20
2023-10-18T05:38:01.161Z,19.53
2023-10-18T05:40:52.363Z,19.60
2023-10-18T05:43:32.551Z,20.33
2023-10-18T05:46:08.985Z,20.30
2023-10-18T05:48:42.329Z,19.20
2023-10-18T05:51:37.445Z,20.33
2023-10-18T05:54:07.268Z,20.97
2023-10-18T05:56:36.096Z,20.33
2023-10-18T05:59:28.565Z,22.20
2023-10-18T06:01:59.740Z,21.37
2023-10-18T06:04:30.165Z,20.87
2023-10-18T06:07:06.152Z,20.57
2023-10-18T06:09:45.817Z,21.00
2023-10-18T06:12:16.553Z,21.70
2023-10-18T06:14:46.534Z,20.93
2023-10-18T06:17:20.373Z,23.23
2023-10-18T06:19:51.456Z,20.73
2023-10-18T06:22:41.119Z,23.88
2023-10-18T06:25:11.381Z,21.87
2023-10-18T06:27:41.429Z,20.53
2023-10-18T06:30:15.966Z,20.60
2023-10-18T06:32:45.152Z,22.00
2023-10-18T06:35:17.272Z,24.53
2023-10-18T06:37:46.675Z,23.27
2023-10-18T06:40:23.854Z,21.10
2023-10-18T06:42:52.623Z,22.17
2023-10-18T06:45:20.752Z,21.80
2023-10-18T06:47:48.868Z,21.40
2023-10-18T06:50:21.371Z,22.60
2023-10-18T06:52:54.929Z,22.53
2023-10-18T06:55:36.847Z,22.07
2023-10-18T06:58:13.441Z,22.03
2023-10-18T07:00:45.499Z,23.10
2023-10-18T07:03:18.200Z,21.70
2023-10-18T07:05:50.855Z,24.73
2023-10-18T07:08:26.457Z,27.10
2023-10-18T07:11:16.069Z,24.90
2023-10-18T07:13:48.373Z,23.70
2023-10-18T07:16:26.257Z,25.43
2023-10-18T07:19:08.247Z,23.33
2023-10-18T07:21:39.340Z,23.23
2023-10-18T07:24:11.739Z,24.77
2023-10-18T07:26:40.667Z,21.80
2023-10-18T07:29:08.996Z,23.10
2023-10-18T07:31:39.840Z,22.37
2023-10-18T07:34:10.241Z,24.80
2023-10-18T07:36:40.062Z,23.80
2023-10-18T07:39:12.805Z,20.17
2023-10-18T07:41:41.925Z,21.73
2023-10-18T07:44:10.213Z,20.27
2023-10-18T07:46:41.735Z,21.67
2023-10-18T07:49:15.153Z,21.03
2023-10-18T07:51:50.913Z,21.13
2023-10-18T07:54:22.528Z,21.10
2023-10-18T07:56:51.605Z,19.50
2023-10-18T07:59:33.453Z,19.83
2023-10-18T08:02:14.080Z,20.23
2023-10-18T08:04:44.800Z,19.70
2023-10-18T08:07:16.587Z,20.10
2023-10-18T08:09:49.725Z,20.20
2023-10-18T08:12:29.728Z,19.50
2023-10-18T08:14:59.180Z,19.23
2023-10-18T08:17:44.569Z,21.33
2023-10-18T08:20:41.084Z,20.63
2023-10-18T08:23:28.849Z,19.47
2023-10-18T08:26:04.845Z,19.13
2023-10-18T08:28:41.948Z,20.80
2023-10-18T08:31:28.301Z,19.57
2023-10-18T08:33:58.214Z,19.27
2023-10-18T08:36:31.473Z,18.87
2023-10-18T08:39:00.336Z,20.83
2023-10-18T08:41:37.929Z,20.00
2023-10-18T08:44:10.201Z,20.20
2023-10-18T08:46:44.122Z,19.47
2023-10-18T08:49:14.680Z,18.80
2023-10-18T08:51:45.801Z,18.83
2023-10-18T08:54:20.842Z,19.43
2023-10-18T08:56:53.154Z,19.00
2023-10-18T08:59:21.631Z,17.80
2023-10-18T09:02:13.393Z,18.03
2023-10-18T09:04:46.018Z,18.37
2023-10-18T09:07:43.776Z,14.90
2023-10-18T09:10:34.618Z,12.57
2023-10-18T09:13:30.199Z,12.20
2023-10-18T09:16:02.925Z,11.63
2023-10-18T09:18:33.452Z,11.77
2023-10-18T09:21:08.997Z,11.67
2023-10-18T09:23:37.709Z,10.37
2023-10-18T09:26:12.189Z,9.93
2023-10-18T09:28:43.956Z,9.57
2023-10-18T09:31:20.843Z,10.70
2023-10-18T09:33:53.617Z,10.00
2023-10-18T09:36:24.981Z,10.70
2023-10-18T09:38:54.664Z,10.00
2023-10-18T09:41:23.345Z,10.40
2023-10-18T09:43:53.175Z,10.33
2023-10-18T09:46:21.559Z,11.20
2023-10-18T09:48:49.925Z,11.33
2023-10-18T09:51:22.488Z,10.43
2023-10-18T09:53:52.020Z,11.23
2023-10-18T09:56:25.633Z,12.00
2023-10-18T09:59:06.347Z,12.50
2023-10-18T10:01:49.086Z,10.80
2023-10-18T10:04:19.817Z,11.53
2023-10-18T10:06:48.530Z,10.53
2023-10-18T10:09:18.394Z,11.27
2023-10-18T10:11:47.838Z,13.50
2023-10-18T10:14:18.564Z,11.43
2023-10-18T10:16:53.949Z,10.63
2023-10-18T10:19:27.064Z,10.77
2023-10-18T10:21:56.981Z,10.60
2023-10-18T10:24:34.806Z,11.00
2023-10-18T10:27:29.597Z,10.93
2023-10-18T10:30:04.987Z,10.70
2023-10-18T10:32:32.466Z,9.53
2023-10-18T10:35:16.296Z,9.40
2023-10-18T10:37:51.427Z,9.20
2023-10-18T10:40:37.199Z,10.30
2023-10-18T10:43:10.174Z,9.93
2023-10-18T10:45:44.644Z,9.80
2023-10-18T10:48:47.285Z,9.57
2023-10-18T10:51:21.474Z,10.17
2023-10-18T10:53:51.931Z,9.50
2023-10-18T10:56:40.730Z,10.60
2023-10-18T10:59:17.212Z,9.70
2023-10-18T11:02:07.350Z,9.37
2023-10-18T11:05:00.695Z,10.00
2023-10-18T11:07:30.632Z,9.80
2023-10-18T11:10:07.459Z,10.23
2023-10-18T11:12:36.759Z,8.87
2023-10-18T11:15:10.280Z,10.00
2023-10-18T11:17:43.776Z,9.53
2023-10-18T11:20:20.450Z,9.40
2023-10-18T11:22:51.902Z,9.50
2023-10-18T11:25:32.114Z,10.03
2023-10-18T11:28:22.380Z,9.00
2023-10-18T11:30:54.709Z,9.33
2023-10-18T11:33:37.687Z,8.97
2023-10-18T11:36:09.422Z,9.70
2023-10-18T11:38:39.215Z,8.20
2023-10-18T11:41:13.149Z,8.83
2023-10-18T11:43:41.796Z,8.43
2023-10-18T11:46:12.997Z,10.30
2023-10-18T11:48:44.520Z,8.00
2023-10-18T11:51:14.784Z,8.07
2023-10-18T11:53:43.040Z,8.30
2023-10-18T11:56:11.215Z,9.37
2023-10-18T11:58:42.411Z,8.50
2023-10-18T12:01:21.329Z,8.03
2023-10-18T12:03:52.538Z,8.33
2023-10-18T12:06:22.816Z,9.63
2023-10-18T12:09:11.063Z,9.53
2023-10-18T12:11:39.746Z,8.60
2023-10-18T12:14:09.550Z,9.60
2023-10-18T12:16:38.291Z,9.10
2023-10-18T12:19:08.479Z,9.20
2023-10-18T12:21:36.855Z,10.00
2023-10-18T12:24:05.543Z,10.50
2023-10-18T12:26:35.424Z,11.73
2023-10-18T12:29:06.527Z,11.07
2023-10-18T12:31:40.717Z,9.90
2023-10-18T12:34:15.366Z,11.10
2023-10-18T12:36:50.421Z,9.57
2023-10-18T12:39:23.052Z,9.47
2023-10-18T12:41:54.503Z,10.63
2023-10-18T12:44:26.662Z,10.33
2023-10-18T12:46:56.139Z,11.53
2023-10-18T12:49:26.096Z,10.50
2023-10-18T12:52:01.138Z,10.77
2023-10-18T12:54:35.638Z,10.53
2023-10-18T12:57:14.996Z,10.50
2023-10-18T13:00:01.513Z,10.17
2023-10-18T13:02:43.815Z,9.97
2023-10-18T13:05:14.198Z,10.37
2023-10-18T13:07:44.747Z,9.57
2023-10-18T13:10:16.839Z,10.60
2023-10-18T13:12:52.787Z,10.20
2023-10-18T13:15:23.736Z,9.90
2023-10-18T13:17:52.942Z,10.93
2023-10-18T13:20:26.524Z,10.63
2023-10-18T13:22:56.789Z,10.10
2023-10-18T13:25:27.706Z,10.93
2023-10-18T13:27:56.300Z,10.33
2023-10-18T13:30:44.898Z,10.40
2023-10-18T13:33:13.502Z,9.77
2023-10-18T13:35:45.120Z,10.20
2023-10-18T13:38:16.897Z,10.60
2023-10-18T13:40:48.224Z,10.90
2023-10-18T13:43:20.145Z,11.00
2023-10-18T13:45:58.602Z,11.10
2023-10-18T13:48:27.873Z,10.40
2023-10-18T13:50:59.671Z,10.23
2023-10-18T13:53:28.607Z,11.53
2023-10-18T13:56:00.384Z,10.20
2023-10-18T13:58:30.780Z,10.87
2023-10-18T14:00:59.484Z,11.23
2023-10-18T14:03:28.905Z,11.73
2023-10-18T14:05:58.829Z,11.37
2023-10-18T14:08:27.254Z,10.57
2023-10-18T14:10:57.209Z,10.47
2023-10-18T14:13:26.418Z,11.93
2023-10-18T14:15:54.443Z,11.50
2023-10-18T14:18:26.598Z,10.70
2023-10-18T14:20:54.893Z,11.33
2023-10-18T14:23:28.537Z,11.70
2023-10-18T14:25:57.018Z,12.20
2023-10-18T14:28:25.339Z,11.83
2023-10-18T14:30:56.792Z,11.67
2023-10-18T14:33:33.766Z,13.03
2023-10-18T14:36:09.831Z,12.27
2023-10-18T14:38:40.034Z,13.17
2023-10-18T14:41:25.066Z,15.00
2023-10-18T14:43:59.999Z,14.60
2023-10-18T14:46:31.034Z,14.10
2023-10-18T14:49:00.715Z,14.93
2023-10-18T14:51:30.260Z,15.33
2023-10-18T14:53:59.922Z,16.23
2023-10-18T14:56:28.207Z,17.23
2023-10-18T14:59:06.402Z,16.40
2023-10-18T15:01:35.986Z,17.37
2023-10-18T15:04:05.024Z,17.70
2023-10-18T15:06:38.587Z,16.77
2023-10-18T15:09:17.269Z,19.20
2023-10-18T15:11:45.833Z,17.63
2023-10-18T15:14:15.869Z,17.43
2023-10-18T15:16:47.924Z,18.20
2023-10-18T15:19:17.147Z,21.20
2023-10-18T15:21:48.491Z,18.10
2023-10-18T15:24:19.126Z,20.10
2023-10-18T15:26:47.745Z,19.50
2023-10-18T15:29:19.116Z,19.70
2023-10-18T15:31:48.198Z,20.23
2023-10-18T15:34:16.296Z,20.97
2023-10-18T15:36:48.666Z,20.93
2023-10-18T15:39:19.755Z,20.23
2023-10-18T15:41:48.301Z,22.40
2023-10-18T15:44:16.766Z,21.20
2023-10-18T15:46:46.293Z,22.23
2023-10-18T15:49:16.590Z,22.23
2023-10-18T15:51:44.930Z,22.63
2023-10-18T15:54:13.419Z,22.53
2023-10-18T15:56:43.218Z,21.97
2023-10-18T15:59:11.496Z,23.47
2023-10-18T16:01:56.015Z,24.13
2023-10-18T16:04:28.253Z,23.97
2023-10-18T16:06:57.170Z,24.33
2023-10-18T16:09:28.998Z,24.10
2023-10-18T16:12:00.747Z,23.20
2023-10-18T16:14:30.678Z,22.50
2023-10-18T16:17:05.380Z,22.83
2023-10-18T16:19:33.666Z,22.70
2023-10-18T16:22:01.960Z,23.67
2023-10-18T16:24:30.300Z,24.10
2023-10-18T16:27:00.082Z,24.37
2023-10-18T16:29:28.277Z,23.10
2023-10-18T16:31:56.610Z,21.20
2023-10-18T16:34:24.925Z,21.53
2023-10-18T16:36:53.165Z,22.40
2023-10-18T16:39:23.810Z,20.87
2023-10-18T16:41:52.933Z,22.20
2023-10-18T16:44:23.322Z,21.80
2023-10-18T16:46:52.963Z,21.47
2023-10-18T16:49:21.651Z,22.17
2023-10-18T16:51:50.415Z,23.60
2023-10-18T16:54:19.257Z,22.37
2023-10-18T16:56:48.586Z,23.60
2023-10-18T16:59:17.268Z,24.50
2023-10-18T17:01:47.455Z,24.57
2023-10-18T17:04:16.108Z,23.70
2023-10-18T17:06:46.367Z,24.70
2023-10-18T17:09:19.181Z,23.47
2023-10-18T17:11:48.132Z,23.53
2023-10-18T17:14:18.497Z,23.60
2023-10-18T17:16:48.656Z,23.80
2023-10-18T17:19:17.147Z,24.67
2023-10-18T17:21:45.463Z,23.60
2023-10-18T17:24:14.403Z,23.80
2023-10-18T17:26:44.159Z,22.90
2023-10-18T17:29:12.381Z,23.33
2023-10-18T17:31:40.833Z,23.83
2023-10-18T17:34:12.976Z,24.80
2023-10-18T17:36:42.444Z,25.50
2023-10-18T17:39:12.659Z,25.03
2023-10-18T17:41:41.703Z,23.13
2023-10-18T17:44:10.389Z,22.90
2023-10-18T17:46:39.090Z,23.97
2023-10-18T17:49:07.829Z,24.20
2023-10-18T17:51:38.396Z,24.60
2023-10-18T17:54:09.245Z,24.13
2023-10-18T17:56:38.480Z,23.80
2023-10-18T17:59:11.247Z,24.83
2023-10-18T18:01:39.863Z,25.80
2023-10-18T18:04:10.178Z,25.87
2023-10-18T18:06:43.204Z,24.20
2023-10-18T18:09:19.244Z,25.20
2023-10-18T18:11:50.550Z,23.80
2023-10-18T18:14:22.982Z,27.00
2023-10-18T18:16:52.290Z,26.03
2023-10-18T18:19:23.083Z,24.50
2023-10-18T18:21:54.537Z,24.07
2023-10-18T18:24:23.272Z,24.07
2023-10-18T18:26:53.260Z,25.13
2023-10-18T18:29:23.226Z,24.43
2023-10-18T18:31:52.130Z,24.47
2023-10-18T18:34:20.807Z,24.40
2023-10-18T18:36:49.652Z,24.93
2023-10-18T18:39:22.373Z,27.70
2023-10-18T18:41:51.754Z,26.00
2023-10-18T18:44:20.762Z,25.17
2023-10-18T18:46:49.876Z,25.27
2023-10-18T18:49:19.579Z,24.13
2023-10-18T18:51:48.697Z,24.60
2023-10-18T18:54:19.155Z,26.10
2023-10-18T18:56:48.123Z,23.80
2023-10-18T18:59:17.335Z,23.00
2023-10-18T19:01:46.875Z,24.70
2023-10-18T19:04:15.850Z,22.30
2023-10-18T19:06:44.910Z,22.57
2023-10-18T19:09:13.909Z,23.23
2023-10-18T19:11:44.975Z,22.83
2023-10-18T19:14:14.015Z,23.67
2023-10-18T19:16:42.651Z,22.67
2023-10-18T19:19:14.890Z,23.77
2023-10-18T19:21:43.845Z,25.57
2023-10-18T19:24:12.655Z,24.73
2023-10-18T19:26:41.563Z,25.13
2023-10-18T19:29:13.045Z,25.17
2023-10-18T19:31:41.739Z,25.13
2023-10-18T19:34:10.632Z,23.50
2023-10-18T19:36:42.922Z,24.30
2023-10-18T19:39:15.164Z,23.67
2023-10-18T19:41:43.718Z,24.87
2023-10-18T19:44:14.028Z,26.43
2023-10-18T19:46:42.899Z,25.83
2023-10-18T19:49:11.771Z,24.20
2023-10-18T19:51:41.464Z,24.07
2023-10-18T19:54:11.156Z,24.60
2023-10-18T19:56:41.783Z,26.00
2023-10-18T19:59:10.890Z,25.57
2023-10-18T20:01:40.969Z,26.47
2023-10-18T20:04:10.492Z,25.43
2023-10-18T20:06:40.101Z,23.93
2023-10-18T20:09:10.012Z,24.57
2023-10-18T20:11:38.864Z,25.37
2023-10-18T20:14:09.239Z,23.63
2023-10-18T20:16:37.888Z,24.13
2023-10-18T20:19:08.113Z,23.80
2023-10-18T20:21:36.989Z,24.50
2023-10-18T20:24:06.270Z,25.03
2023-10-18T20:26:35.376Z,24.53
2023-10-18T20:29:04.021Z,24.10
2023-10-18T20:31:32.647Z,24.17
2023-10-18T20:34:01.477Z,24.47
2023-10-18T20:36:32.888Z,23.77
2023-10-18T20:39:01.907Z,22.47
2023-10-18T20:41:31.220Z,22.00
2023-10-18T20:43:59.833Z,23.57
2023-10-18T20:46:32.990Z,25.23
2023-10-18T20:49:07.243Z,24.00
2023-10-18T20:51:38.315Z,24.93
2023-10-18T20:54:11.002Z,23.07
2023-10-18T20:56:39.665Z,23.90
2023-10-18T20:59:10.832Z,24.77
2023-10-18T21:01:42.123Z,23.20
2023-10-18T21:04:12.418Z,25.57
2023-10-18T21:06:43.785Z,23.13
2023-10-18T21:09:14.200Z,23.97
2023-10-18T21:11:43.854Z,23.10
2023-10-18T21:14:16.073Z,23.93
2023-10-18T21:16:46.286Z,24.43
2023-10-18T21:19:15.746Z,24.00
2023-10-18T21:21:45.937Z,23.20
2023-10-18T21:24:14.843Z,23.00
2023-10-18T21:26:43.493Z,23.07
2023-10-18T21:29:11.917Z,23.13
2023-10-18T21:31:41.526Z,22.50
2023-10-18T21:34:09.934Z,22.83
2023-10-18T21:36:38.428Z,23.40
2023-10-18T21:39:08.358Z,22.47
2023-10-18T21:41:38.616Z,22.27
2023-10-18T21:44:07.048Z,21.87
2023-10-18T21:46:39.537Z,23.07
2023-10-18T21:49:08.238Z,22.67
2023-10-18T21:51:39.282Z,23.23
2023-10-18T21:54:12.523Z,22.93
2023-10-18T21:56:42.641Z,23.97
2023-10-18T21:59:12.905Z,24.80
2023-10-18T22:01:48.717Z,23.77
2023-10-18T22:04:20.972Z,23.20
2023-10-18T22:06:55.298Z,24.00
2023-10-18T22:09:32.716Z,24.73
2023-10-18T22:12:04.600Z,23.97
2023-10-18T22:14:33.089Z,24.27
2023-10-18T22:17:07.019Z,21.57
2023-10-18T22:19:37.461Z,23.07
2023-10-18T22:22:13.911Z,22.60
2023-10-18T22:24:48.955Z,22.90
2023-10-18T22:27:18.072Z,23.80
2023-10-18T22:29:50.154Z,23.53
2023-10-18T22:32:21.176Z,23.50
2023-10-18T22:34:51.627Z,22.33
2023-10-18T22:37:22.813Z,22.40
2023-10-18T22:39:59.664Z,23.00
2023-10-18T22:42:40.138Z,23.87
2023-10-18T22:45:11.587Z,23.00
2023-10-18T22:47:44.993Z,22.63
2023-10-18T22:50:22.183Z,21.20
2023-10-18T22:52:54.030Z,21.50
2023-10-18T22:55:28.102Z,21.43
2023-10-18T22:57:57.259Z,21.27
2023-10-18T23:00:34.998Z,20.70
2023-10-18T23:03:10.977Z,21.40
2023-10-18T23:05:42.042Z,21.10
2023-10-18T23:08:21.925Z,21.33
2023-10-18T23:10:56.872Z,21.07
2023-10-18T23:13:37.478Z,20.80
2023-10-18T23:16:11.775Z,21.00
2023-10-18T23:18:55.155Z,19.93
2023-10-18T23:21:30.494Z,20.60
2023-10-18T23:24:29.009Z,19.60
2023-10-18T23:27:16.005Z,20.33
2023-10-18T23:29:47.160Z,20.63
2023-10-18T23:32:30.342Z,19.50
2023-10-18T23:35:19.340Z,19.73
2023-10-18T23:37:56.320Z,20.43
2023-10-18T23:40:27.896Z,19.80
2023-10-18T23:43:19.211Z,19.70
2023-10-18T23:45:57.958Z,20.20
2023-10-18T23:48:29.108Z,18.63
2023-10-18T23:51:06.922Z,18.93
2023-10-18T23:53:44.856Z,19.10
2023-10-18T23:56:13.364Z,19.00
2023-10-18T23:58:49.296Z,17.83
